Time;durP1;ratioP1;P1;durP2;ratioP2;P2;SDS_P1;SDS_P2;PMS_P1;PMS_P2;Temp;Humidity;BMP_temperature;BMP_pressure;BME280_temperature;BME280_humidity;BME280_pressure;Samples;Min_cycle;Max_cycle;Signal;HPM_P1;HPM_P2
2021/10/01 00:01:35;;;;;;;19.80;18.67;;;;;;;;;;5096149;28;20459;-92
2021/10/01 00:04:03;;;;;;;19.70;18.43;;;;;;;;;;5096534;28;20423;-92
2021/10/01 00:06:30;;;;;;;19.70;18.50;;;;;;;;;;5096534;28;20485;-92
2021/10/01 00:08:59;;;;;;;21.17;19.63;;;;;;;;;;5079082;28;20430;-93
2021/10/01 00:11:26;;;;;;;19.67;18.43;;;;;;;;;;5096029;28;20454;-92
2021/10/01 00:13:54;;;;;;;20.60;19.10;;;;;;;;;;5096424;28;20419;-92
2021/10/01 00:16:21;;;;;;;21.10;19.50;;;;;;;;;;5096188;28;20484;-93
2021/10/01 00:18:49;;;;;;;20.27;18.87;;;;;;;;;;5096081;28;20460;-92
2021/10/01 00:21:16;;;;;;;20.90;19.13;;;;;;;;;;5096427;28;20430;-92
2021/10/01 00:23:44;;;;;;;20.10;18.80;;;;;;;;;;5096227;28;20412;-92
2021/10/01 00:26:12;;;;;;;20.33;18.63;;;;;;;;;;5078244;28;20477;-92
2021/10/01 00:28:40;;;;;;;19.47;18.27;;;;;;;;;;5096269;28;20411;-93
2021/10/01 00:31:07;;;;;;;19.10;18.00;;;;;;;;;;5095706;28;20474;-92
2021/10/01 00:33:34;;;;;;;20.63;18.80;;;;;;;;;;5095258;28;20495;-92
2021/10/01 00:36:03;;;;;;;19.60;18.40;;;;;;;;;;5095238;28;20445;-92
2021/10/01 00:38:31;;;;;;;19.90;18.60;;;;;;;;;;5095983;28;20448;-91
2021/10/01 00:40:58;;;;;;;18.90;17.87;;;;;;;;;;5095763;28;20426;-92
2021/10/01 00:43:27;;;;;;;19.73;18.50;;;;;;;;;;5095488;28;20456;-93
2021/10/01 00:45:55;;;;;;;20.87;19.33;;;;;;;;;;5077708;28;20458;-92
2021/10/01 00:48:22;;;;;;;19.93;18.83;;;;;;;;;;5077586;28;20468;-92
2021/10/01 00:50:50;;;;;;;19.80;18.47;;;;;;;;;;5078251;28;20811;-92
2021/10/01 00:53:18;;;;;;;19.23;17.80;;;;;;;;;;5095417;28;20495;-93
2021/10/01 00:55:47;;;;;;;19.80;18.70;;;;;;;;;;5095680;28;20410;-92
2021/10/01 00:58:14;;;;;;;19.80;18.60;;;;;;;;;;5095861;28;20419;-93
2021/10/01 01:00:52;;;;;;;20.63;18.93;;;;;;;;;;5095456;28;20459;-93
2021/10/01 01:03:20;;;;;;;19.97;18.77;;;;;;;;;;5095106;28;20484;-92
2021/10/01 01:05:53;;;;;;;19.60;18.47;;;;;;;;;;5094943;28;21042;-92
2021/10/01 01:08:23;;;;;;;20.03;18.70;;;;;;;;;;5095306;28;20403;-93
2021/10/01 01:10:56;;;;;;;19.37;18.27;;;;;;;;;;5095333;28;20434;-93
2021/10/01 01:13:26;;;;;;;19.40;18.30;;;;;;;;;;5095322;28;20464;-92
2021/10/01 01:16:03;;;;;;;20.07;18.63;;;;;;;;;;5095005;28;20901;-93
2021/10/01 01:18:32;;;;;;;19.70;18.40;;;;;;;;;;5095340;28;20439;-93
2021/10/01 01:21:00;;;;;;;20.20;18.40;;;;;;;;;;5095044;28;20781;-92
2021/10/01 01:23:42;;;;;;;19.47;18.27;;;;;;;;;;5094644;28;20434;-92
2021/10/01 01:26:13;;;;;;;19.67;18.47;;;;;;;;;;5076659;28;20433;-93
2021/10/01 01:28:50;;;;;;;20.17;18.93;;;;;;;;;;5094784;28;20912;-92
2021/10/01 01:31:20;;;;;;;19.23;18.13;;;;;;;;;;5094105;28;20921;-92
2021/10/01 01:33:50;;;;;;;19.83;18.73;;;;;;;;;;5076839;28;20989;-92
2021/10/01 01:36:17;;;;;;;19.10;18.00;;;;;;;;;;5094944;28;20437;-92
2021/10/01 01:38:48;;;;;;;19.67;18.40;;;;;;;;;;5076733;28;20835;-93
2021/10/01 01:41:16;;;;;;;20.10;18.50;;;;;;;;;;5077115;28;20471;-92
2021/10/01 01:43:44;;;;;;;19.73;18.63;;;;;;;;;;5076922;28;20436;-93
2021/10/01 01:46:12;;;;;;;19.60;18.30;;;;;;;;;;5094978;28;20716;-92
2021/10/01 01:48:40;;;;;;;19.87;18.50;;;;;;;;;;5094763;28;20415;-92
2021/10/01 01:51:09;;;;;;;19.60;18.33;;;;;;;;;;5094675;28;20440;-92
2021/10/01 01:53:37;;;;;;;19.50;18.30;;;;;;;;;;5094629;28;20454;-93
2021/10/01 01:56:06;;;;;;;19.37;18.27;;;;;;;;;;5094773;28;20460;-93
2021/10/01 01:58:35;;;;;;;19.77;18.60;;;;;;;;;;5094302;28;20834;-93
2021/10/01 02:01:03;;;;;;;21.33;19.60;;;;;;;;;;5059771;28;20444;-92
2021/10/01 02:03:31;;;;;;;20.80;19.47;;;;;;;;;;5094149;28;20410;-92
2021/10/01 02:05:59;;;;;;;19.87;18.47;;;;;;;;;;5093724;28;20491;-92
2021/10/01 02:08:30;;;;;;;20.33;18.93;;;;;;;;;;5094454;28;20464;-92
2021/10/01 02:10:58;;;;;;;19.70;18.20;;;;;;;;;;5094424;28;20418;-92
2021/10/01 02:13:26;;;;;;;19.77;18.40;;;;;;;;;;5094493;28;21148;-93
2021/10/01 02:15:54;;;;;;;19.70;18.50;;;;;;;;;;5094316;28;20436;-92
2021/10/01 02:18:22;;;;;;;20.20;18.60;;;;;;;;;;5094198;28;20403;-92
2021/10/01 02:20:50;;;;;;;18.97;17.87;;;;;;;;;;5094259;28;20403;-93
2021/10/01 02:23:17;;;;;;;19.23;18.00;;;;;;;;;;5094352;28;20472;-92
2021/10/01 02:28:35;;;;;;;20.87;19.47;;;;;;;;;;5094243;28;20395;-92
2021/10/01 02:31:04;;;;;;;19.90;18.70;;;;;;;;;;5093731;28;20407;-92
2021/10/01 02:33:35;;;;;;;20.47;18.87;;;;;;;;;;5094138;28;20467;-93
2021/10/01 02:36:02;;;;;;;19.53;18.00;;;;;;;;;;5093923;28;20932;-92
2021/10/01 02:38:30;;;;;;;20.00;18.73;;;;;;;;;;5094418;28;20436;-93
2021/10/01 02:40:59;;;;;;;20.00;18.87;;;;;;;;;;5094158;28;20431;-92
2021/10/01 02:43:26;;;;;;;19.43;18.43;;;;;;;;;;5097539;28;20434;-93
2021/10/01 02:45:53;;;;;;;19.90;18.70;;;;;;;;;;5097969;28;20432;-92
2021/10/01 02:48:21;;;;;;;20.73;19.20;;;;;;;;;;5097675;28;20456;-93
2021/10/01 02:50:51;;;;;;;20.23;18.93;;;;;;;;;;5097748;28;20447;-92
2021/10/01 02:53:23;;;;;;;19.87;18.67;;;;;;;;;;5097834;28;20532;-92
2021/10/01 02:55:55;;;;;;;19.27;18.17;;;;;;;;;;5079801;28;20456;-93
2021/10/01 02:58:27;;;;;;;19.83;18.60;;;;;;;;;;5097921;28;20415;-92
2021/10/01 03:00:55;;;;;;;20.50;19.40;;;;;;;;;;5097468;28;20498;-93
2021/10/01 03:03:25;;;;;;;20.53;18.87;;;;;;;;;;5080035;28;20451;-92
2021/10/01 03:05:53;;;;;;;20.17;18.87;;;;;;;;;;5097657;28;20484;-93
2021/10/01 03:08:21;;;;;;;19.83;18.63;;;;;;;;;;5097607;28;20440;-93
2021/10/01 03:10:50;;;;;;;19.77;18.63;;;;;;;;;;5097549;28;20398;-92
2021/10/01 03:13:20;;;;;;;19.83;18.70;;;;;;;;;;5097091;28;20484;-93
2021/10/01 03:15:50;;;;;;;19.17;18.17;;;;;;;;;;5079389;28;20839;-93
2021/10/01 03:18:17;;;;;;;19.97;18.50;;;;;;;;;;5079497;28;20465;-92
2021/10/01 03:20:45;;;;;;;20.17;18.87;;;;;;;;;;5097603;28;20415;-93
2021/10/01 03:23:13;;;;;;;19.70;18.63;;;;;;;;;;5097472;28;20534;-92
2021/10/01 03:25:40;;;;;;;20.23;18.73;;;;;;;;;;5097078;28;20436;-93
2021/10/01 03:28:07;;;;;;;19.93;18.93;;;;;;;;;;5097239;28;20418;-93
2021/10/01 03:30:35;;;;;;;20.20;18.90;;;;;;;;;;5097087;28;20423;-92
2021/10/01 03:33:04;;;;;;;21.00;19.30;;;;;;;;;;5096783;28;20495;-93
2021/10/01 03:35:31;;;;;;;20.30;19.30;;;;;;;;;;5097434;28;20422;-93
2021/10/01 03:37:59;;;;;;;20.10;18.93;;;;;;;;;;5079140;28;20443;-93
2021/10/01 03:40:30;;;;;;;20.57;19.07;;;;;;;;;;5097101;28;20471;-93
2021/10/01 03:42:58;;;;;;;19.40;18.40;;;;;;;;;;5096827;28;20446;-92
2021/10/01 03:45:25;;;;;;;20.30;19.07;;;;;;;;;;5097182;28;20441;-93
2021/10/01 03:47:53;;;;;;;19.47;18.40;;;;;;;;;;5096332;28;20449;-93
2021/10/01 03:50:21;;;;;;;19.90;18.80;;;;;;;;;;5096489;28;20534;-93
2021/10/01 03:52:49;;;;;;;20.50;19.40;;;;;;;;;;5096774;28;20479;-92
2021/10/01 03:55:21;;;;;;;19.33;18.23;;;;;;;;;;5095623;28;20465;-93
2021/10/01 03:57:49;;;;;;;19.83;18.43;;;;;;;;;;5096807;28;20443;-93
2021/10/01 04:00:17;;;;;;;19.97;18.73;;;;;;;;;;5078541;28;20456;-93
2021/10/01 04:02:44;;;;;;;19.83;18.63;;;;;;;;;;5096449;28;20424;-94
2021/10/01 04:05:12;;;;;;;19.87;18.63;;;;;;;;;;5096496;28;20473;-93
2021/10/01 04:07:41;;;;;;;19.40;17.97;;;;;;;;;;5096301;28;20430;-92
2021/10/01 04:10:10;;;;;;;22.17;19.87;;;;;;;;;;5096416;28;20450;-93
2021/10/01 04:12:37;;;;;;;20.70;19.20;;;;;;;;;;5096412;28;20443;-92
2021/10/01 04:15:06;;;;;;;20.30;19.10;;;;;;;;;;5095946;28;20446;-93
2021/10/01 04:17:33;;;;;;;19.83;18.83;;;;;;;;;;5096521;28;20798;-92
2021/10/01 04:20:00;;;;;;;19.97;18.77;;;;;;;;;;5096327;28;20447;-93
2021/10/01 04:22:28;;;;;;;20.03;18.73;;;;;;;;;;5096094;28;20483;-93
2021/10/01 04:24:57;;;;;;;20.93;19.57;;;;;;;;;;5095782;28;20415;-92
2021/10/01 04:27:25;;;;;;;20.40;19.03;;;;;;;;;;5078238;28;20928;-93
2021/10/01 04:29:52;;;;;;;20.92;19.58;;;;;;;;;;5095981;28;20450;-92
2021/10/01 04:32:19;;;;;;;19.60;18.50;;;;;;;;;;5095786;28;20191;-92
2021/10/01 04:34:59;;;;;;;19.80;18.70;;;;;;;;;;5095905;28;20489;-92
2021/10/01 04:37:26;;;;;;;20.67;19.23;;;;;;;;;;5096770;28;20441;-92
2021/10/01 04:39:54;;;;;;;19.90;18.90;;;;;;;;;;5095782;28;20940;-92
2021/10/01 04:42:23;;;;;;;19.60;18.48;;;;;;;;;;5095423;28;20913;-87
2021/10/01 04:44:50;;;;;;;20.13;18.83;;;;;;;;;;5096729;28;20201;-93
2021/10/01 04:47:18;;;;;;;20.17;18.87;;;;;;;;;;5107297;28;20417;-89
2021/10/01 04:49:45;;;;;;;20.10;18.80;;;;;;;;;;5098060;28;20436;-89
2021/10/01 04:52:12;;;;;;;21.10;19.77;;;;;;;;;;5115907;28;20430;-89
2021/10/01 04:54:40;;;;;;;20.20;19.00;;;;;;;;;;5115705;28;20505;-89
2021/10/01 04:57:08;;;;;;;21.47;19.70;;;;;;;;;;5115506;28;20480;-89
2021/10/01 04:59:37;;;;;;;19.97;18.70;;;;;;;;;;5115374;28;20439;-89
2021/10/01 05:02:05;;;;;;;19.87;18.70;;;;;;;;;;5096620;28;20413;-89
2021/10/01 05:04:33;;;;;;;19.80;18.70;;;;;;;;;;5077211;28;20437;-87
2021/10/01 05:07:00;;;;;;;19.83;18.73;;;;;;;;;;5076951;28;20800;-87
2021/10/01 05:09:27;;;;;;;20.73;19.50;;;;;;;;;;5095190;28;20434;-88
2021/10/01 05:11:55;;;;;;;20.20;19.00;;;;;;;;;;5095270;28;20414;-89
2021/10/01 05:14:22;;;;;;;19.87;18.57;;;;;;;;;;5094925;28;20480;-88
2021/10/01 05:16:51;;;;;;;20.43;19.00;;;;;;;;;;5095275;28;20441;-88
2021/10/01 05:19:18;;;;;;;20.10;18.90;;;;;;;;;;5095299;28;20460;-88
2021/10/01 05:21:46;;;;;;;19.63;18.43;;;;;;;;;;5094701;28;20455;-88
2021/10/01 05:24:14;;;;;;;20.30;18.90;;;;;;;;;;5095251;28;20794;-90
2021/10/01 05:26:42;;;;;;;19.73;18.50;;;;;;;;;;5095006;28;20439;-90
2021/10/01 05:29:10;;;;;;;19.90;18.70;;;;;;;;;;5095046;28;20846;-89
2021/10/01 05:31:37;;;;;;;20.17;18.83;;;;;;;;;;5094847;28;20530;-91
2021/10/01 05:34:06;;;;;;;21.40;19.73;;;;;;;;;;5095515;28;20503;-92
2021/10/01 05:36:34;;;;;;;20.80;19.60;;;;;;;;;;5094667;28;20415;-90
2021/10/01 05:39:02;;;;;;;19.77;18.47;;;;;;;;;;5094386;28;20441;-93
2021/10/01 05:41:30;;;;;;;19.23;18.17;;;;;;;;;;5094471;28;21045;-92
2021/10/01 05:43:58;;;;;;;20.70;19.30;;;;;;;;;;5094643;28;20998;-90
2021/10/01 05:46:25;;;;;;;20.80;19.40;;;;;;;;;;5094999;28;20448;-90
2021/10/01 05:48:54;;;;;;;19.73;18.63;;;;;;;;;;5076787;28;20489;-85
2021/10/01 05:51:23;;;;;;;19.77;18.67;;;;;;;;;;5076217;28;20871;-84
2021/10/01 05:54:11;;;;;;;21.10;19.80;;;;;;;;;;5093848;28;20483;-85
2021/10/01 05:56:39;;;;;;;20.53;19.23;;;;;;;;;;5094977;28;20450;-88
2021/10/01 05:59:07;;;;;;;20.23;19.00;;;;;;;;;;5077578;28;20455;-96
2021/10/01 06:01:35;;;;;;;20.50;19.07;;;;;;;;;;5095139;28;20444;-90
2021/10/01 06:04:03;;;;;;;19.60;18.40;;;;;;;;;;5094286;28;20483;-88
2021/10/01 06:06:31;;;;;;;20.30;18.70;;;;;;;;;;5094066;28;20483;-87
2021/10/01 06:08:59;;;;;;;20.33;19.13;;;;;;;;;;5094257;28;20419;-88
2021/10/01 06:11:26;;;;;;;21.07;19.70;;;;;;;;;;5094075;28;20439;-87
2021/10/01 06:13:54;;;;;;;19.80;18.70;;;;;;;;;;5094555;28;20492;-88
2021/10/01 06:16:21;;;;;;;20.90;19.70;;;;;;;;;;5094352;28;20531;-88
2021/10/01 06:18:49;;;;;;;21.40;20.10;;;;;;;;;;5093630;28;20456;-90
2021/10/01 06:21:17;;;;;;;22.20;20.50;;;;;;;;;;5094109;28;20459;-89
2021/10/01 06:23:46;;;;;;;20.77;19.37;;;;;;;;;;5094220;28;20416;-88
2021/10/01 06:26:13;;;;;;;20.70;19.40;;;;;;;;;;5093833;28;20411;-88
2021/10/01 06:28:41;;;;;;;20.30;19.20;;;;;;;;;;5093918;28;20809;-86
2021/10/01 06:31:08;;;;;;;21.57;19.93;;;;;;;;;;5094109;28;20422;-88
2021/10/01 06:33:36;;;;;;;20.70;19.40;;;;;;;;;;5094049;28;20451;-86
2021/10/01 06:36:03;;;;;;;21.20;19.93;;;;;;;;;;5093907;28;20431;-95
2021/10/01 06:38:31;;;;;;;20.27;19.17;;;;;;;;;;5075965;28;20444;-88
2021/10/01 06:41:00;;;;;;;20.93;19.70;;;;;;;;;;5094867;28;20446;-87
2021/10/01 06:43:28;;;;;;;22.03;20.70;;;;;;;;;;5093939;28;20895;-92
2021/10/01 06:45:56;;;;;;;22.43;20.53;;;;;;;;;;5094404;28;20598;-91
2021/10/01 06:48:31;;;;;;;21.00;19.90;;;;;;;;;;5075869;28;20480;-91
2021/10/01 08:19:41;;;;;;;20.40;18.77;;;;;;;;;;5095952;28;20394;-86
2021/10/01 08:22:09;;;;;;;19.40;18.20;;;;;;;;;;5096467;28;20447;-84
2021/10/01 08:24:37;;;;;;;20.03;18.67;;;;;;;;;;5097577;28;20411;-89
2021/10/01 08:27:05;;;;;;;20.40;19.10;;;;;;;;;;5097272;28;20427;-88
2021/10/01 08:29:33;;;;;;;20.13;18.90;;;;;;;;;;5096444;28;20437;-86
2021/10/01 08:32:01;;;;;;;20.53;19.13;;;;;;;;;;5095933;28;20396;-86
2021/10/01 08:34:29;;;;;;;19.43;18.33;;;;;;;;;;5095533;28;20501;-87
2021/10/01 08:36:58;;;;;;;19.83;18.50;;;;;;;;;;5095333;28;20445;-88
2021/10/01 08:39:26;;;;;;;20.10;18.80;;;;;;;;;;5095303;28;20866;-88
2021/10/01 08:41:53;;;;;;;20.03;18.93;;;;;;;;;;5077865;28;20444;-86
2021/10/01 08:44:21;;;;;;;19.80;18.70;;;;;;;;;;5095791;28;20420;-87
2021/10/01 08:46:54;;;;;;;20.07;18.87;;;;;;;;;;5106427;28;20418;-87
2021/10/01 08:54:52;;;;;;;20.67;19.37;;;;;;;;;;5516851;22;20494;-92
2021/10/01 09:28:30;;;;;;;20.50;19.30;;;;;;;;;;4993059;23;20482;-95
2021/10/01 09:34:01;;;;;;;19.67;18.47;;;;;;;;;;5028237;23;20414;-90
2021/10/01 09:58:00;;;;;;;19.77;18.67;;;;;;;;;;5014869;23;20561;-91
2021/10/01 10:00:37;;;;;;;19.30;18.10;;;;;;;;;;5015268;28;20455;-93
2021/10/01 10:03:05;;;;;;;19.30;18.10;;;;;;;;;;5059252;23;20808;-87
2021/10/01 10:06:02;;;;;;;19.40;18.30;;;;;;;;;;5032178;28;20514;-85
2021/10/01 10:08:31;;;;;;;20.20;18.57;;;;;;;;;;4972834;28;20424;-84
2021/10/01 10:10:58;;;;;;;20.10;18.73;;;;;;;;;;4960162;28;20428;-91
2021/10/01 10:13:38;;;;;;;20.37;19.07;;;;;;;;;;4974056;28;20420;-85
2021/10/01 10:16:07;;;;;;;20.27;18.87;;;;;;;;;;4973819;28;20423;-92
2021/10/01 10:18:35;;;;;;;20.40;18.87;;;;;;;;;;4973523;28;20417;-85
2021/10/01 10:21:03;;;;;;;19.90;18.53;;;;;;;;;;4980768;28;20469;-87
2021/10/01 10:23:31;;;;;;;19.57;18.40;;;;;;;;;;4993104;28;20432;-86
2021/10/01 10:25:59;;;;;;;20.03;18.83;;;;;;;;;;4993235;28;20431;-92
2021/10/01 10:28:26;;;;;;;20.93;19.53;;;;;;;;;;4992652;28;20431;-89
2021/10/01 10:30:55;;;;;;;20.90;19.10;;;;;;;;;;4992650;28;20516;-90
2021/10/01 10:33:43;;;;;;;19.73;18.57;;;;;;;;;;4993022;28;20460;-90
2021/10/01 10:36:29;;;;;;;21.30;19.80;;;;;;;;;;4992755;28;20493;-90
2021/10/01 10:38:57;;;;;;;20.23;18.93;;;;;;;;;;4992197;28;20431;-90
2021/10/01 10:41:25;;;;;;;19.80;18.60;;;;;;;;;;4992777;28;20441;-90
2021/10/01 10:43:53;;;;;;;21.43;20.13;;;;;;;;;;5033987;28;20421;-91
2021/10/01 10:46:40;;;;;;;20.17;18.97;;;;;;;;;;5038668;28;20451;-90
2021/10/01 10:49:22;;;;;;;20.87;19.57;;;;;;;;;;5034047;28;20522;-91
2021/10/01 10:52:07;;;;;;;21.27;19.97;;;;;;;;;;5033631;28;20427;-90
2021/10/01 10:54:35;;;;;;;21.67;20.07;;;;;;;;;;5033589;28;20478;-91
2021/10/01 10:57:21;;;;;;;21.13;19.60;;;;;;;;;;5033557;28;20445;-91
2021/10/01 10:59:50;;;;;;;21.60;20.17;;;;;;;;;;5024498;28;20426;-92
2021/10/01 11:02:19;;;;;;;21.53;20.30;;;;;;;;;;5033838;28;20923;-89
2021/10/01 11:04:51;;;;;;;21.73;20.33;;;;;;;;;;5035376;28;20549;-91
2021/10/01 11:07:45;;;;;;;21.97;20.47;;;;;;;;;;5020623;28;20451;-91
2021/10/01 11:10:31;;;;;;;21.87;20.47;;;;;;;;;;4976998;28;20430;-90
2021/10/01 11:13:23;;;;;;;22.27;20.77;;;;;;;;;;4976867;28;20474;-91
2021/10/01 11:16:05;;;;;;;22.00;20.40;;;;;;;;;;4976509;28;20476;-91
2021/10/01 11:18:33;;;;;;;22.60;20.80;;;;;;;;;;4976567;28;20463;-91
2021/10/01 11:21:02;;;;;;;21.63;20.33;;;;;;;;;;4976734;28;20476;-92
2021/10/01 11:23:29;;;;;;;21.73;20.33;;;;;;;;;;4960457;28;20455;-91
2021/10/01 11:25:57;;;;;;;21.67;20.07;;;;;;;;;;4976596;28;20418;-91
2021/10/01 11:28:33;;;;;;;21.93;20.53;;;;;;;;;;4976334;28;20414;-90
2021/10/01 11:31:01;;;;;;;22.90;21.50;;;;;;;;;;4976141;28;20421;-92
2021/10/01 11:33:28;;;;;;;23.23;21.60;;;;;;;;;;4961176;28;20463;-92
2021/10/01 11:35:57;;;;;;;22.07;20.67;;;;;;;;;;4977533;28;20465;-94
2021/10/01 11:38:27;;;;;;;21.80;20.40;;;;;;;;;;4976085;28;20488;-94
2021/10/01 11:41:21;;;;;;;21.87;20.57;;;;;;;;;;4976387;28;20412;-94
2021/10/01 11:43:54;;;;;;;21.57;20.17;;;;;;;;;;4938066;29;20435;-95
2021/10/01 11:46:32;;;;;;;21.07;19.77;;;;;;;;;;4963182;28;20886;-93
2021/10/01 11:49:02;;;;;;;22.00;20.70;;;;;;;;;;4960718;28;20442;-96
2021/10/01 11:51:30;;;;;;;21.93;20.53;;;;;;;;;;4976698;28;20459;-95
2021/10/01 11:54:08;;;;;;;22.20;20.80;;;;;;;;;;4960715;28;21008;-93
2021/10/01 11:56:36;;;;;;;22.23;20.83;;;;;;;;;;4959582;28;20490;-92
2021/10/01 11:59:03;;;;;;;23.57;22.07;;;;;;;;;;4976124;28;20447;-94
2021/10/01 12:01:31;;;;;;;22.63;21.13;;;;;;;;;;4975876;28;21064;-94
2021/10/01 12:04:00;;;;;;;22.67;21.10;;;;;;;;;;4975967;28;20489;-92
2021/10/01 12:06:29;;;;;;;22.20;20.80;;;;;;;;;;4975874;28;20471;-96
2021/10/01 12:08:58;;;;;;;23.27;21.57;;;;;;;;;;4975803;28;20514;-94
2021/10/01 12:11:28;;;;;;;22.60;21.17;;;;;;;;;;4975522;28;20463;-95
2021/10/01 12:13:55;;;;;;;22.13;20.63;;;;;;;;;;4975826;28;20441;-93
2021/10/01 12:16:23;;;;;;;23.20;21.80;;;;;;;;;;4974661;28;20538;-94
2021/10/01 12:18:57;;;;;;;23.37;21.77;;;;;;;;;;4987687;28;20452;-94
2021/10/01 12:21:25;;;;;;;23.00;21.50;;;;;;;;;;5036168;28;20792;-95
2021/10/01 12:23:56;;;;;;;22.43;20.93;;;;;;;;;;5019000;28;20423;-91
2021/10/01 12:26:26;;;;;;;22.60;21.30;;;;;;;;;;5035649;28;20445;-92
2021/10/01 12:29:05;;;;;;;22.07;20.67;;;;;;;;;;5017871;28;20498;-91
2021/10/01 12:31:36;;;;;;;22.47;21.07;;;;;;;;;;5035354;28;20431;-92
2021/10/01 12:34:06;;;;;;;22.73;21.30;;;;;;;;;;5035736;28;20445;-91
2021/10/01 12:36:33;;;;;;;24.13;22.53;;;;;;;;;;5035570;28;20570;-92
2021/10/01 12:39:01;;;;;;;23.00;21.50;;;;;;;;;;5035569;28;20426;-93
2021/10/01 12:41:29;;;;;;;22.63;20.83;;;;;;;;;;5036081;28;20411;-93
2021/10/01 12:43:58;;;;;;;22.40;20.90;;;;;;;;;;5035737;28;20459;-93
2021/10/01 12:46:43;;;;;;;22.53;21.13;;;;;;;;;;5035520;28;20423;-93
2021/10/01 12:49:17;;;;;;;22.83;21.33;;;;;;;;;;5035361;28;20419;-92
2021/10/01 12:51:45;;;;;;;22.77;21.47;;;;;;;;;;5035429;28;20438;-94
2021/10/01 12:54:23;;;;;;;23.63;22.17;;;;;;;;;;5017879;28;20438;-92
2021/10/01 12:57:05;;;;;;;23.50;21.90;;;;;;;;;;5035088;28;20508;-90
2021/10/01 12:59:39;;;;;;;23.10;21.70;;;;;;;;;;5034873;28;20435;-94
2021/10/01 13:02:11;;;;;;;22.57;21.07;;;;;;;;;;5035291;28;20422;-93
2021/10/01 13:04:49;;;;;;;23.30;21.73;;;;;;;;;;5035551;28;20484;-94
2021/10/01 13:07:33;;;;;;;23.97;22.30;;;;;;;;;;5035447;28;20433;-94
2021/10/01 13:10:01;;;;;;;26.03;23.67;;;;;;;;;;5034958;28;20438;-93
2021/10/01 13:12:33;;;;;;;24.03;22.43;;;;;;;;;;5034801;28;20535;-93
2021/10/01 13:15:11;;;;;;;23.97;22.23;;;;;;;;;;5016680;28;20478;-93
2021/10/01 13:17:40;;;;;;;24.30;22.77;;;;;;;;;;5035051;28;20428;-94
2021/10/01 13:20:08;;;;;;;23.03;21.63;;;;;;;;;;5034658;28;20443;-93
2021/10/01 13:22:55;;;;;;;23.57;22.07;;;;;;;;;;5035064;28;20460;-93
2021/10/01 13:25:23;;;;;;;23.27;21.97;;;;;;;;;;5017412;28;20479;-89
2021/10/01 13:27:52;;;;;;;22.87;21.40;;;;;;;;;;5033949;28;20442;-92
2021/10/01 13:30:20;;;;;;;22.70;21.13;;;;;;;;;;5034761;28;20818;-93
2021/10/01 13:32:49;;;;;;;23.53;21.90;;;;;;;;;;5034619;28;20440;-93
2021/10/01 13:35:17;;;;;;;23.20;21.67;;;;;;;;;;5037025;28;20472;-91
2021/10/01 13:37:45;;;;;;;23.20;21.70;;;;;;;;;;5035208;28;20863;-89
2021/10/01 13:40:12;;;;;;;24.10;22.47;;;;;;;;;;5034513;28;20896;-88
2021/10/01 13:42:40;;;;;;;23.37;21.93;;;;;;;;;;5034566;28;20890;-89
2021/10/01 13:45:08;;;;;;;22.93;21.43;;;;;;;;;;5017049;28;20478;-88
2021/10/01 13:47:36;;;;;;;23.40;21.90;;;;;;;;;;5034218;28;20457;-89
2021/10/01 13:50:06;;;;;;;23.03;21.63;;;;;;;;;;5034501;28;20454;-89
2021/10/01 13:52:34;;;;;;;23.37;21.97;;;;;;;;;;5034311;28;20461;-91
2021/10/01 13:55:01;;;;;;;23.40;21.90;;;;;;;;;;5034042;28;20443;-89
2021/10/01 13:57:29;;;;;;;22.97;21.50;;;;;;;;;;5034174;28;20472;-88
2021/10/01 13:59:57;;;;;;;23.90;21.93;;;;;;;;;;5034268;28;20561;-88
2021/10/01 14:02:24;;;;;;;811.40;724.50;;;;;;;;;;5033999;28;20950;-88
2021/10/01 14:04:52;;;;;;;800.15;717.50;;;;;;;;;;5033970;28;20708;-88
2021/10/01 14:07:20;;;;;;;333.20;296.97;;;;;;;;;;5033887;28;20240;-89
2021/10/01 14:09:48;;;;;;;23.60;22.20;;;;;;;;;;5034233;28;20461;-88
2021/10/01 14:12:16;;;;;;;23.13;21.73;;;;;;;;;;5034210;28;20429;-88
2021/10/01 14:14:43;;;;;;;23.37;21.83;;;;;;;;;;5034026;28;20861;-88
2021/10/01 14:17:11;;;;;;;23.30;21.80;;;;;;;;;;5033949;28;20459;-88
2021/10/01 14:19:38;;;;;;;24.37;22.90;;;;;;;;;;5034190;28;20523;-88
2021/10/01 14:22:06;;;;;;;24.70;23.00;;;;;;;;;;5033924;28;20457;-88
2021/10/01 14:24:37;;;;;;;25.10;23.43;;;;;;;;;;5033891;28;20450;-88
2021/10/01 14:27:04;;;;;;;25.37;23.77;;;;;;;;;;5016270;28;20423;-88
2021/10/01 14:29:32;;;;;;;25.83;23.90;;;;;;;;;;5033710;28;20436;-88
2021/10/01 14:31:59;;;;;;;24.97;23.27;;;;;;;;;;5033857;28;20414;-88
2021/10/01 14:34:27;;;;;;;24.17;22.63;;;;;;;;;;5016198;28;20433;-87
2021/10/01 14:36:54;;;;;;;24.00;22.60;;;;;;;;;;5033647;28;20492;-87
2021/10/01 14:39:22;;;;;;;23.63;22.23;;;;;;;;;;5036629;28;20415;-88
2021/10/01 14:41:50;;;;;;;23.20;21.70;;;;;;;;;;5038067;28;20459;-88
2021/10/01 14:44:18;;;;;;;24.73;23.03;;;;;;;;;;5037797;28;20447;-88
2021/10/01 14:46:45;;;;;;;25.00;23.40;;;;;;;;;;5037740;28;20452;-88
2021/10/01 14:49:13;;;;;;;24.47;22.93;;;;;;;;;;5037728;28;20431;-88
2021/10/01 14:51:40;;;;;;;23.63;22.23;;;;;;;;;;5037854;28;20469;-88
2021/10/01 14:54:07;;;;;;;24.23;22.63;;;;;;;;;;5037949;28;20434;-88
2021/10/01 14:56:35;;;;;;;23.63;22.23;;;;;;;;;;5037339;28;21017;-88
2021/10/01 14:59:04;;;;;;;24.13;22.37;;;;;;;;;;5037616;28;20413;-87
2021/10/01 15:01:32;;;;;;;23.57;22.13;;;;;;;;;;5037962;28;20422;-88
2021/10/01 15:04:00;;;;;;;23.70;22.17;;;;;;;;;;5019557;28;20461;-88
2021/10/01 15:06:27;;;;;;;23.70;22.30;;;;;;;;;;5037116;28;20411;-88
2021/10/01 15:08:55;;;;;;;24.40;22.87;;;;;;;;;;5037442;28;20432;-88
2021/10/01 15:11:22;;;;;;;23.90;22.50;;;;;;;;;;5037207;28;20941;-88
2021/10/01 15:13:49;;;;;;;23.93;22.53;;;;;;;;;;5037401;28;20420;-88
2021/10/01 15:16:18;;;;;;;24.63;23.03;;;;;;;;;;5037518;28;20448;-89
2021/10/01 15:18:46;;;;;;;23.90;22.50;;;;;;;;;;5037048;28;20500;-89
2021/10/01 15:21:13;;;;;;;25.70;24.20;;;;;;;;;;5037076;28;20477;-89
2021/10/01 15:23:41;;;;;;;25.50;24.00;;;;;;;;;;5036886;28;20436;-89
2021/10/01 15:26:09;;;;;;;24.73;23.33;;;;;;;;;;5312898;22;20489;-89
2021/10/01 15:28:36;;;;;;;25.47;24.07;;;;;;;;;;5036557;28;20435;-88
2021/10/01 15:31:04;;;;;;;25.67;24.20;;;;;;;;;;5036639;28;20437;-88
2021/10/01 15:33:33;;;;;;;25.53;24.13;;;;;;;;;;5036582;28;20422;-88
2021/10/01 15:36:00;;;;;;;26.70;25.20;;;;;;;;;;5036577;28;20464;-88
2021/10/01 15:38:28;;;;;;;26.73;25.33;;;;;;;;;;5019119;28;20446;-89
2021/10/01 15:40:55;;;;;;;23.53;22.23;;;;;;;;;;5036954;28;20807;-88
2021/10/01 15:43:23;;;;;;;24.23;22.37;;;;;;;;;;5036534;28;20431;-89
2021/10/01 15:45:51;;;;;;;24.60;23.17;;;;;;;;;;5019100;28;20437;-88
2021/10/01 15:48:19;;;;;;;24.13;22.80;;;;;;;;;;5035988;28;20463;-89
2021/10/01 15:50:47;;;;;;;24.70;23.30;;;;;;;;;;5035596;28;20415;-89
2021/10/01 15:53:15;;;;;;;24.90;23.20;;;;;;;;;;5036701;28;20411;-89
2021/10/01 15:55:42;;;;;;;23.87;22.47;;;;;;;;;;5036130;28;20451;-89
2021/10/01 15:58:10;;;;;;;25.80;24.10;;;;;;;;;;5036579;28;20422;-89
2021/10/01 16:00:41;;;;;;;24.90;23.50;;;;;;;;;;5018960;28;20426;-88
2021/10/01 16:03:09;;;;;;;28.30;26.40;;;;;;;;;;5036439;28;20428;-88
2021/10/01 16:05:37;;;;;;;22.87;21.57;;;;;;;;;;5036192;28;20437;-88
2021/10/01 16:08:07;;;;;;;22.70;21.37;;;;;;;;;;5035861;28;20468;-89
2021/10/01 16:10:35;;;;;;;23.80;22.30;;;;;;;;;;5018179;28;20431;-88
2021/10/01 16:13:02;;;;;;;23.93;22.27;;;;;;;;;;5036112;28;20434;-88
2021/10/01 16:15:31;;;;;;;25.97;24.10;;;;;;;;;;5035577;28;20760;-90
2021/10/01 16:17:59;;;;;;;24.83;23.13;;;;;;;;;;5035657;28;20498;-88
2021/10/01 16:20:29;;;;;;;26.20;24.50;;;;;;;;;;5036402;28;20514;-89
2021/10/01 16:22:57;;;;;;;24.47;22.97;;;;;;;;;;5035522;28;20506;-89
2021/10/01 16:25:27;;;;;;;24.47;22.77;;;;;;;;;;5035289;28;21218;-88
2021/10/01 16:27:55;;;;;;;24.60;23.00;;;;;;;;;;5035860;28;20416;-93
2021/10/01 16:30:23;;;;;;;25.40;23.50;;;;;;;;;;5035670;28;20435;-95
2021/10/01 16:32:50;;;;;;;25.40;23.70;;;;;;;;;;5035905;28;20432;-96
2021/10/01 16:35:19;;;;;;;26.83;24.93;;;;;;;;;;5035672;28;20462;-89
2021/10/01 16:37:46;;;;;;;24.50;22.70;;;;;;;;;;5035583;28;20463;-89
2021/10/01 16:40:13;;;;;;;25.40;23.70;;;;;;;;;;5035396;28;20451;-89
2021/10/01 16:42:43;;;;;;;25.07;23.47;;;;;;;;;;5035508;28;20457;-94
2021/10/01 16:45:10;;;;;;;24.00;22.40;;;;;;;;;;5035765;28;20443;-94
2021/10/01 16:47:38;;;;;;;24.20;22.80;;;;;;;;;;5025537;28;20464;-94
2021/10/01 16:50:06;;;;;;;23.63;22.33;;;;;;;;;;5030462;28;20498;-95
2021/10/01 16:52:34;;;;;;;23.00;21.70;;;;;;;;;;5026983;28;20483;-94
2021/10/01 16:55:01;;;;;;;23.70;22.37;;;;;;;;;;5026371;28;20467;-93
2021/10/01 16:57:29;;;;;;;24.67;23.00;;;;;;;;;;5029059;28;20481;-94
2021/10/01 17:00:03;;;;;;;23.47;21.93;;;;;;;;;;5031302;28;20460;-94
2021/10/01 17:02:30;;;;;;;24.97;23.23;;;;;;;;;;5030556;28;20772;-94